Terminal Aerodrome Forecast
Issued by NWS

Home | Current Version | Previous Version | Text Only | Print | Product List | Glossary On
Versions: 1 2 3 4 5 6 7 8 9 10 11 12 13 14 15 16 17 18 19 20 21
449
FTUS41 KOKX 082320
TAFSWF
TAF
KSWF 082320Z 0900/1006 07008KT P6SM BKN025 OVC035
      TEMPO 0900/0902 4SM -SN
     FM090200 05006KT P6SM OVC015
     FM090600 VRB05KT P6SM OVC015
     FM091500 06007KT P6SM SCT015 BKN025
     FM100300 08004KT 2SM -SN BKN008 BKN015
      AMD NOT SKED=

USA.gov is the U.S. government's official web portal to all federal, state and local government web resources and services.